Time;durP1;ratioP1;P1;durP2;ratioP2;P2;SDS_P1;SDS_P2;PMS_P1;PMS_P2;Temp;Humidity;BMP_temperature;BMP_pressure;BME280_temperature;BME280_humidity;BME280_pressure;Samples;Min_cycle;Max_cycle;Signal;HPM_P1;HPM_P2
2022/06/15 04:23:52;;;;;;;1.40;0.43;;;14.60;74.40;;;;;;2097321;28;20072;-95
2022/06/15 04:26:14;;;;;;;1.63;0.73;;;14.70;74.30;;;;;;2104598;28;20040;-96
2022/06/15 04:27:43;;;;;;;1.83;0.70;;;14.70;74.20;;;;;;2090746;28;20029;-96
2022/06/15 04:29:14;;;;;;;2.25;0.80;;;14.70;74.20;;;;;;2088627;28;20049;-94
2022/06/15 04:30:35;;;;;;;2.80;0.70;;;14.70;74.20;;;;;;2087086;28;20033;-96
2022/06/15 04:31:54;;;;;;;2.05;0.55;;;14.80;74.30;;;;;;2096653;28;20052;-96
2022/06/15 04:33:15;;;;;;;1.25;0.70;;;14.80;74.40;;;;;;2093713;28;20494;-96
2022/06/15 04:34:36;;;;;;;2.80;0.80;;;14.90;74.50;;;;;;2090770;28;20033;-96
2022/06/15 04:35:57;;;;;;;2.28;0.70;;;14.90;74.50;;;;;;2086585;28;20041;-96
2022/06/15 04:37:16;;;;;;;1.75;0.90;;;14.90;74.50;;;;;;2093557;28;20513;-96
2022/06/15 04:38:35;;;;;;;2.53;0.75;;;14.90;74.50;;;;;;2090988;28;20045;-94
2022/06/15 04:39:54;;;;;;;2.63;0.80;;;14.90;75.20;;;;;;2087530;28;20119;-96
2022/06/15 04:41:14;;;;;;;2.13;0.80;;;14.90;74.60;;;;;;2079743;28;20037;-94
2022/06/15 04:42:35;;;;;;;1.65;0.70;;;14.90;74.60;;;;;;2090390;28;20057;-95
2022/06/15 04:43:54;;;;;;;;;;;15.00;74.70;;;;;;2098410;28;20041;-95
2022/06/15 04:45:15;;;;;;;2.05;0.73;;;15.00;74.50;;;;;;2096272;28;19909;-95
2022/06/15 04:46:35;;;;;;;1.65;0.63;;;15.00;74.50;;;;;;2097148;28;20033;-95
2022/06/15 04:47:54;;;;;;;2.17;0.80;;;15.00;74.60;;;;;;2090520;28;20033;-96
2022/06/15 04:49:13;;;;;;;2.00;0.73;;;15.00;74.50;;;;;;2093307;28;20036;-94
2022/06/15 04:50:33;;;;;;;1.92;0.90;;;15.10;74.50;;;;;;2091968;28;20037;-94
2022/06/15 04:51:53;;;;;;;3.30;0.98;;;15.10;74.50;;;;;;2097900;28;20045;-94
2022/06/15 04:53:12;;;;;;;2.80;0.88;;;15.10;74.50;;;;;;2099557;28;20037;-93
2022/06/15 04:54:32;;;;;;;2.03;0.80;;;15.20;74.50;;;;;;2097540;28;20147;-94
2022/06/15 04:55:51;;;;;;;2.05;0.80;;;15.30;74.50;;;;;;2096020;28;20519;-93
2022/06/15 04:57:10;;;;;;;1.92;0.70;;;15.40;74.40;;;;;;2090690;28;20041;-94
2022/06/15 04:58:29;;;;;;;2.55;0.85;;;15.40;74.30;;;;;;2086252;28;20040;-93
2022/06/15 04:59:48;;;;;;;2.28;0.90;;;15.50;74.20;;;;;;2100727;28;20028;-93
2022/06/15 05:01:08;;;;;;;2.38;0.98;;;15.60;74.70;;;;;;2083537;28;20038;-93
2022/06/15 05:02:28;;;;;;;2.58;0.80;;;15.80;73.90;;;;;;2083785;28;20033;-93
2022/06/15 05:03:47;;;;;;;1.67;0.70;;;15.80;73.70;;;;;;2096770;28;20045;-91
2022/06/15 05:05:07;;;;;;;1.95;0.80;;;15.90;73.50;;;;;;2099473;28;20032;-93
2022/06/15 05:06:34;;;;;;;2.22;0.80;;;16.10;73.40;;;;;;2090927;28;20036;-95
2022/06/15 05:07:53;;;;;;;2.45;0.80;;;16.20;73.30;;;;;;2091416;28;20036;-94
2022/06/15 05:09:14;;;;;;;2.22;0.90;;;16.30;73.20;;;;;;2083962;28;20029;-93
2022/06/15 05:10:34;;;;;;;3.53;0.77;;;16.40;73.00;;;;;;2085956;28;20395;-93
2022/06/15 05:11:53;;;;;;;2.08;0.60;;;16.50;73.30;;;;;;2076386;28;20049;-94
2022/06/15 05:13:12;;;;;;;1.67;0.77;;;16.60;72.50;;;;;;2081409;28;20434;-93
2022/06/15 05:14:31;;;;;;;1.38;0.70;;;16.70;72.40;;;;;;2079683;28;20120;-94
2022/06/15 05:15:50;;;;;;;2.20;0.80;;;16.80;72.20;;;;;;2084625;28;20037;-93
2022/06/15 05:17:10;;;;;;;2.65;0.82;;;16.90;72.00;;;;;;2079191;28;20496;-93
2022/06/15 05:18:29;;;;;;;1.83;0.80;;;17.00;71.80;;;;;;2076173;28;20072;-93
2022/06/15 05:19:49;;;;;;;2.33;0.70;;;17.10;71.70;;;;;;2084157;28;20037;-92
2022/06/15 05:21:16;;;;;;;2.55;0.80;;;17.20;71.50;;;;;;2077432;28;20034;-93
2022/06/15 05:22:37;;;;;;;2.05;0.70;;;17.30;71.40;;;;;;2079738;28;20041;-94
2022/06/15 05:26:14;;;;;;;1.85;0.77;;;17.50;71.00;;;;;;2089749;28;20045;-94
2022/06/15 07:44:40;;;;;;;2.17;0.60;;;21.70;59.60;;;;;;2113009;27;20486;-89
2022/06/15 07:46:03;;;;;;;2.35;0.82;;;21.60;60.10;;;;;;2101703;28;20052;-88
2022/06/15 07:50:12;;;;;;;2.83;0.60;;;21.60;58.70;;;;;;2108215;28;20021;-88
2022/06/15 07:52:05;;;;;;;2.47;0.60;;;21.60;58.70;;;;;;2088015;28;20037;-88
2022/06/15 07:53:26;;;;;;;2.35;0.70;;;21.60;58.40;;;;;;2116303;27;20114;-88
2022/06/15 07:54:51;;;;;;;3.42;0.85;;;21.60;58.30;;;;;;2090962;28;20037;-88
2022/06/15 07:56:12;;;;;;;3.88;0.90;;;21.60;57.70;;;;;;2100013;28;20028;-88
2022/06/15 07:57:57;;;;;;;2.17;0.60;;;21.50;57.40;;;;;;2104549;28;20118;-87
2022/06/15 08:01:25;;;;;;;5.28;0.90;;;21.60;57.70;;;;;;2113284;28;20424;-88
2022/06/15 08:02:52;;;;;;;2.28;0.65;;;21.70;56.80;;;;;;2105827;28;20028;-88
2022/06/15 08:04:13;;;;;;;3.03;0.85;;;21.80;56.90;;;;;;2092680;28;20048;-88
2022/06/15 08:06:02;;;;;;;2.95;0.50;;;21.80;56.70;;;;;;2091810;28;20498;-88
2022/06/15 08:07:58;;;;;;;3.03;0.77;;;21.80;56.60;;;;;;2107461;28;20067;-89
2022/06/15 08:09:27;;;;;;;3.47;0.90;;;21.90;56.70;;;;;;2108085;28;20138;-87
2022/06/15 08:11:10;;;;;;;2.95;0.80;;;22.00;56.50;;;;;;2109149;28;20040;-88
2022/06/15 08:12:33;;;;;;;3.03;0.77;;;22.00;56.20;;;;;;2107384;28;20028;-88
2022/06/15 08:14:24;;;;;;;1.75;0.60;;;22.00;56.20;;;;;;2104236;28;20040;-88
2022/06/15 08:16:06;;;;;;;1.48;0.63;;;22.10;56.00;;;;;;2092534;28;20040;-88
2022/06/15 08:18:07;;;;;;;1.95;0.70;;;22.10;56.00;;;;;;2091203;28;20029;-88
2022/06/15 08:20:22;;;;;;;2.80;0.73;;;22.10;56.00;;;;;;2091125;28;20025;-88
2022/06/15 08:22:56;;;;;;;2.05;0.50;;;22.10;55.60;;;;;;2091044;28;20363;-88
2022/06/15 08:26:59;;;;;;;3.20;0.55;;;22.20;55.80;;;;;;2107540;28;20040;-88
2022/06/15 08:31:30;;;;;;;1.33;0.45;;;22.30;55.80;;;;;;2104122;28;20028;-88
2022/06/15 09:41:30;;;;;;;2.13;0.60;;;24.00;52.20;;;;;;2103040;28;20044;-90
2022/06/15 09:43:17;;;;;;;2.38;0.70;;;24.00;52.40;;;;;;2096523;28;20111;-89
2022/06/15 09:45:08;;;;;;;1.48;0.60;;;24.00;52.00;;;;;;2083940;28;20045;-90
2022/06/15 09:46:59;;;;;;;3.13;0.75;;;24.10;52.10;;;;;;2099411;28;20119;-89
2022/06/15 09:49:20;;;;;;;2.67;0.60;;;24.10;51.70;;;;;;2100992;28;20040;-90
2022/06/15 09:51:24;;;;;;;2.45;0.63;;;24.10;51.90;;;;;;2100746;28;20044;-90
2022/06/15 09:53:29;;;;;;;2.10;0.70;;;24.20;51.90;;;;;;2091558;28;20074;-88
2022/06/15 09:57:50;;;;;;;3.17;0.80;;;24.40;51.80;;;;;;2103885;28;20020;-90
2022/06/15 09:59:52;;;;;;;2.05;0.82;;;24.40;51.60;;;;;;2102956;28;20032;-89
2022/06/15 11:05:44;;;;;;;2.13;0.50;;;25.80;47.20;;;;;;2116997;28;20513;-89
2022/06/15 11:07:12;;;;;;;1.65;0.60;;;25.80;47.30;;;;;;2114654;28;20051;-88
2022/06/15 11:08:34;;;;;;;1.45;0.60;;;25.90;47.30;;;;;;2102635;28;20046;-88
2022/06/15 11:10:13;;;;;;;3.08;0.77;;;26.00;47.20;;;;;;2100528;28;20051;-87
2022/06/15 11:11:35;;;;;;;1.65;0.52;;;26.00;47.00;;;;;;2100836;28;20040;-87
2022/06/15 11:13:02;;;;;;;1.50;0.55;;;26.00;46.80;;;;;;2093139;28;20036;-86
2022/06/15 11:14:44;;;;;;;1.92;0.50;;;26.00;46.70;;;;;;2097058;28;20032;-88
2022/06/15 11:18:20;;;;;;;1.67;0.50;;;26.10;46.60;;;;;;2110863;28;20036;-88
2022/06/15 11:20:00;;;;;;;4.20;0.80;;;26.10;46.60;;;;;;2099514;28;20502;-87
2022/06/15 11:21:32;;;;;;;;;;;26.30;46.70;;;;;;2102733;28;20044;-87
2022/06/15 11:22:55;;;;;;;2.25;0.50;;;26.30;46.60;;;;;;2097756;28;19904;-87
2022/06/15 11:24:40;;;;;;;1.48;0.63;;;26.30;46.60;;;;;;2096386;28;20041;-87
2022/06/15 11:28:24;;;;;;;2.38;0.68;;;26.40;46.20;;;;;;2109297;28;20056;-87
2022/06/15 11:30:02;;;;;;;0.88;0.40;;;26.60;46.50;;;;;;2099327;28;20037;-88
2022/06/15 11:31:24;;;;;;;2.33;0.60;;;26.70;46.00;;;;;;2098558;28;20482;-87
2022/06/15 11:32:53;;;;;;;1.83;0.60;;;26.70;45.90;;;;;;2098009;28;20029;-87
2022/06/15 11:34:20;;;;;;;2.92;0.80;;;26.70;45.60;;;;;;2103637;28;20044;-86
2022/06/15 11:36:00;;;;;;;1.75;0.60;;;26.70;45.60;;;;;;2105560;28;20079;-88
2022/06/15 11:40:02;;;;;;;2.08;0.70;;;26.80;45.80;;;;;;2117039;28;20040;-88
2022/06/15 11:42:45;;;;;;;1.50;0.70;;;26.90;45.90;;;;;;2111954;28;20024;-88
2022/06/15 12:29:31;;;;;;;1.25;0.50;;;30.30;43.10;;;;;;2106765;28;20051;-88
2022/06/15 12:31:11;;;;;;;1.05;0.50;;;30.20;43.30;;;;;;2113746;28;20051;-88
2022/06/15 12:33:00;;;;;;;2.08;0.80;;;30.20;43.20;;;;;;2106547;28;20502;-88
2022/06/15 12:34:58;;;;;;;1.27;0.50;;;30.20;42.90;;;;;;2106798;28;20036;-88
2022/06/15 12:37:17;;;;;;;1.50;0.60;;;30.10;42.80;;;;;;2113303;28;20032;-88
2022/06/15 12:42:32;;;;;;;0.82;0.40;;;30.40;42.20;;;;;;2121678;27;20046;-88
2022/06/15 12:43:52;;;;;;;1.25;0.40;;;30.50;42.20;;;;;;2098533;28;20036;-88
2022/06/15 12:45:38;;;;;;;1.10;0.40;;;30.60;42.10;;;;;;2100761;28;20060;-88
2022/06/15 12:49:55;;;;;;;1.25;0.40;;;31.10;41.70;;;;;;2073671;28;20077;-88
2022/06/15 13:01:53;;;;;;;1.48;0.70;;;31.20;40.50;;;;;;2104960;28;20506;-88
2022/06/15 13:03:28;;;;;;;4.00;0.52;;;31.20;40.50;;;;;;2106787;28;20107;-88
2022/06/15 13:05:12;;;;;;;1.85;0.70;;;31.10;40.20;;;;;;2098418;28;20049;-88
2022/06/15 13:06:37;;;;;;;1.70;0.50;;;31.00;40.10;;;;;;2098446;28;20052;-88
2022/06/15 13:08:17;;;;;;;2.00;0.60;;;30.80;40.20;;;;;;2090450;28;20041;-88
2022/06/15 13:09:37;;;;;;;1.38;0.50;;;30.50;39.80;;;;;;2101881;28;20027;-88
2022/06/15 13:11:17;;;;;;;1.15;0.40;;;30.10;40.20;;;;;;2081819;28;20041;-88
2022/06/15 13:13:05;;;;;;;1.70;0.60;;;29.80;40.10;;;;;;2097449;28;20048;-89
2022/06/15 13:17:11;;;;;;;1.55;0.60;;;29.10;40.70;;;;;;2101536;28;20478;-88
2022/06/15 13:25:04;;;;;;;2.15;0.82;;;27.70;40.60;;;;;;2109845;28;20050;-88
2022/06/15 13:26:26;;;;;;;1.15;0.50;;;27.60;40.70;;;;;;2106722;28;20032;-88
2022/06/15 13:28:08;;;;;;;1.08;0.45;;;27.40;40.60;;;;;;2107265;28;20028;-88
2022/06/15 13:29:34;;;;;;;1.40;0.55;;;27.20;40.80;;;;;;2101923;28;20024;-87
2022/06/15 13:31:00;;;;;;;0.70;0.40;;;27.00;40.90;;;;;;2093777;28;20121;-87
2022/06/15 13:32:58;;;;;;;1.13;0.50;;;26.90;41.10;;;;;;2104942;28;20032;-88
2022/06/15 13:34:56;;;;;;;1.25;0.57;;;26.70;41.30;;;;;;2106770;28;20056;-88
2022/06/15 13:37:11;;;;;;;1.00;0.50;;;26.60;41.40;;;;;;2110780;28;20032;-88
2022/06/15 13:38:36;;;;;;;1.20;0.40;;;26.50;41.50;;;;;;2110773;28;20393;-87
2022/06/15 13:40:16;;;;;;;0.88;0.40;;;26.40;41.40;;;;;;2102577;28;20048;-87
2022/06/15 13:41:38;;;;;;;1.60;0.70;;;26.40;41.20;;;;;;2103240;28;20896;-87
2022/06/15 13:43:01;;;;;;;0.95;0.55;;;26.30;41.20;;;;;;2095242;28;20044;-88
2022/06/15 13:44:23;;;;;;;1.35;0.57;;;26.20;41.10;;;;;;2099996;28;20150;-86
2022/06/15 13:45:48;;;;;;;2.13;0.57;;;26.10;41.10;;;;;;2086848;28;20049;-87
2022/06/15 13:47:09;;;;;;;2.03;0.60;;;25.90;41.10;;;;;;2091747;28;20045;-88
2022/06/15 13:48:45;;;;;;;1.98;0.60;;;25.90;41.10;;;;;;2092602;28;20044;-88
2022/06/15 13:50:07;;;;;;;1.45;0.57;;;25.80;41.20;;;;;;2104196;28;20044;-87
2022/06/15 13:51:35;;;;;;;0.88;0.60;;;25.70;41.20;;;;;;2094146;28;20041;-87
2022/06/15 13:53:48;;;;;;;3.17;1.02;;;25.70;41.10;;;;;;2095790;28;20036;-88
2022/06/15 13:55:51;;;;;;;1.58;0.60;;;25.60;41.10;;;;;;2105934;28;20048;-88
2022/06/15 13:58:07;;;;;;;1.40;0.60;;;25.60;41.30;;;;;;2107311;28;20032;-89
2022/06/15 14:04:39;;;;;;;1.98;0.50;;;25.50;41.50;;;;;;2113404;28;20046;-88
2022/06/15 14:06:36;;;;;;;2.45;0.55;;;25.50;41.60;;;;;;2102814;28;20052;-88
2022/06/15 14:08:54;;;;;;;1.05;0.55;;;25.50;41.60;;;;;;2103237;28;20028;-88
2022/06/15 14:10:58;;;;;;;1.42;0.40;;;25.40;41.60;;;;;;2080870;28;20120;-87
2022/06/15 14:13:13;;;;;;;0.77;0.40;;;25.40;41.70;;;;;;2069584;28;20030;-88
2022/06/15 14:15:41;;;;;;;1.70;0.60;;;25.30;41.70;;;;;;2088563;28;20052;-87
2022/06/15 14:17:14;;;;;;;1.48;0.60;;;25.30;41.50;;;;;;2073421;28;20097;-87
2022/06/15 14:18:41;;;;;;;1.20;0.68;;;25.30;41.60;;;;;;2080685;28;20416;-88
2022/06/15 14:23:17;;;;;;;1.85;0.50;;;25.20;41.70;;;;;;2085181;28;20115;-89
2022/06/15 14:28:02;;;;;;;0.93;0.40;;;25.20;41.70;;;;;;2055636;28;20133;-88
2022/06/15 14:30:15;;;;;;;1.65;0.50;;;25.20;41.80;;;;;;2046279;28;20035;-88
2022/06/15 14:31:54;;;;;;;1.63;0.60;;;25.20;42.10;;;;;;2046972;29;20035;-87
2022/06/15 14:34:09;;;;;;;1.20;0.50;;;25.20;42.10;;;;;;2057250;28;20517;-88
2022/06/15 14:35:33;;;;;;;2.38;0.60;;;25.20;42.30;;;;;;2042792;28;20031;-88
2022/06/15 14:36:56;;;;;;;0.98;0.50;;;25.10;42.30;;;;;;2040237;29;20047;-88
2022/06/15 14:38:21;;;;;;;1.67;0.52;;;25.20;42.20;;;;;;2074311;28;20451;-88
2022/06/15 14:39:52;;;;;;;1.63;0.60;;;25.20;42.10;;;;;;2080716;28;20499;-87
2022/06/15 14:41:19;;;;;;;0.73;0.40;;;25.20;42.00;;;;;;2079631;28;20053;-88
2022/06/15 14:42:56;;;;;;;1.65;0.50;;;25.30;42.10;;;;;;2075288;28;20484;-88
2022/06/15 14:44:23;;;;;;;1.45;0.60;;;25.30;42.10;;;;;;2073940;28;20045;-88
2022/06/15 14:45:45;;;;;;;2.22;0.63;;;25.30;42.10;;;;;;2080841;28;20041;-88
2022/06/15 14:47:05;;;;;;;1.42;0.43;;;25.30;42.10;;;;;;2078350;28;20037;-88
2022/06/15 14:48:35;;;;;;;1.00;0.53;;;25.30;42.20;;;;;;2070660;28;20038;-87
2022/06/15 14:49:57;;;;;;;1.65;0.65;;;25.30;42.30;;;;;;2084910;28;20068;-88
2022/06/15 14:51:20;;;;;;;2.30;0.52;;;25.30;42.90;;;;;;2073674;28;20041;-88
2022/06/15 14:52:39;;;;;;;1.85;0.60;;;25.30;42.40;;;;;;2080694;28;20116;-88
2022/06/15 14:54:27;;;;;;;1.38;0.50;;;25.30;42.60;;;;;;2068957;28;20050;-86
2022/06/15 14:56:09;;;;;;;2.20;0.45;;;25.40;42.70;;;;;;2082776;28;20515;-87
2022/06/15 14:57:34;;;;;;;1.38;0.50;;;25.30;42.70;;;;;;2082940;28;20034;-87
2022/06/15 14:59:40;;;;;;;2.58;0.40;;;25.30;42.90;;;;;;2080772;28;20493;-86
2022/06/15 15:01:11;;;;;;;1.67;0.50;;;25.30;43.10;;;;;;2081453;28;20065;-87
2022/06/15 15:03:31;;;;;;;0.90;0.40;;;25.30;43.10;;;;;;2103538;28;20051;-89
2022/06/15 15:05:59;;;;;;;0.65;0.38;;;25.30;43.20;;;;;;2102693;28;20091;-95
2022/06/15 15:09:47;;;;;;;0.85;0.50;;;25.40;43.20;;;;;;2101432;28;20391;-95
2022/06/15 15:11:51;;;;;;;1.52;0.73;;;25.40;43.20;;;;;;2096206;28;20575;-96
2022/06/15 15:13:54;;;;;;;1.30;0.50;;;25.30;43.00;;;;;;2108481;28;20044;-94
2022/06/15 15:15:38;;;;;;;1.17;0.57;;;25.30;43.10;;;;;;2108793;28;20036;-93
2022/06/15 15:46:15;;;;;;;1.65;0.50;;;25.20;43.00;;;;;;2105862;28;20040;-94
2022/06/15 15:48:43;;;;;;;2.28;0.45;;;25.10;42.90;;;;;;2103211;28;20509;-94
2022/06/15 15:51:03;;;;;;;1.75;0.60;;;25.10;43.10;;;;;;2075688;28;20034;-95
2022/06/15 15:53:33;;;;;;;2.22;0.60;;;25.10;43.40;;;;;;2062624;28;20042;-95
2022/06/15 16:10:55;;;;;;;2.00;0.50;;;25.10;43.30;;;;;;2105931;28;20052;-94
2022/06/15 16:12:17;;;;;;;1.20;0.60;;;25.10;43.30;;;;;;2090642;28;20160;-95
2022/06/15 16:13:37;;;;;;;0.93;0.50;;;25.10;43.50;;;;;;2095874;28;20037;-93
2022/06/15 16:14:57;;;;;;;0.75;0.40;;;25.10;43.50;;;;;;2095635;28;20133;-96
2022/06/15 16:16:16;;;;;;;1.30;0.50;;;25.10;43.50;;;;;;2079305;28;20069;-93
2022/06/15 16:17:37;;;;;;;1.35;0.50;;;25.10;43.30;;;;;;2080132;28;20041;-96
2022/06/15 16:18:57;;;;;;;2.03;0.60;;;25.10;43.20;;;;;;2093688;28;20025;-96
2022/06/15 16:20:22;;;;;;;0.98;0.45;;;25.10;43.20;;;;;;2092092;28;20049;-94
2022/06/15 16:22:58;;;;;;;0.88;0.50;;;25.10;43.20;;;;;;2109250;28;20039;-95
2022/06/15 16:27:36;;;;;;;1.10;0.50;;;25.00;43.40;;;;;;2059068;28;20397;-93
2022/06/15 16:30:17;;;;;;;2.22;0.45;;;25.00;43.40;;;;;;2051716;29;20035;-94
2022/06/15 16:32:33;;;;;;;1.88;0.60;;;25.00;43.50;;;;;;2045383;29;20068;-94
2022/06/15 16:36:35;;;;;;;0.68;0.40;;;25.00;43.50;;;;;;2052553;28;20038;-95
2022/06/15 16:38:38;;;;;;;1.50;0.57;;;25.00;43.50;;;;;;2042251;29;20044;-96
2022/06/15 16:42:45;;;;;;;2.53;0.60;;;25.00;43.60;;;;;;2025486;29;20036;-96
2022/06/15 16:44:36;;;;;;;1.15;0.60;;;25.00;43.60;;;;;;2065952;28;20048;-91
2022/06/15 16:47:33;;;;;;;1.77;0.60;;;25.00;43.60;;;;;;2111856;27;20449;-92
2022/06/15 16:49:57;;;;;;;0.88;0.47;;;25.00;43.60;;;;;;2104429;28;20040;-94
2022/06/15 16:52:41;;;;;;;0.80;0.50;;;25.00;43.70;;;;;;2111262;28;20031;-93
2022/06/15 16:54:59;;;;;;;0.75;0.45;;;25.00;43.70;;;;;;2114020;27;20107;-93
2022/06/15 16:59:34;;;;;;;2.13;0.40;;;24.90;43.90;;;;;;2107065;27;20043;-94
2022/06/15 17:02:08;;;;;;;1.73;0.60;;;24.90;43.80;;;;;;2107706;28;20457;-94
2022/06/15 17:06:31;;;;;;;2.17;0.50;;;24.90;43.90;;;;;;2118130;27;20039;-94
2022/06/15 17:21:48;;;;;;;1.13;0.50;;;24.90;44.00;;;;;;2101911;28;20083;-93
2022/06/15 17:23:36;;;;;;;0.85;0.50;;;24.90;44.00;;;;;;2098872;28;20045;-93
2022/06/15 17:25:45;;;;;;;1.38;0.70;;;24.90;43.90;;;;;;2100772;28;20487;-95
2022/06/15 17:27:50;;;;;;;1.35;0.55;;;24.80;43.90;;;;;;2091736;28;20029;-93
2022/06/15 17:30:10;;;;;;;2.10;0.63;;;24.70;44.20;;;;;;2113661;28;20031;-95
2022/06/15 17:32:36;;;;;;;1.02;0.50;;;24.70;44.30;;;;;;2116318;28;20043;-94
2022/06/15 17:34:33;;;;;;;0.68;0.40;;;24.60;44.30;;;;;;2102094;28;20469;-95
2022/06/15 17:36:49;;;;;;;0.75;0.50;;;24.50;44.30;;;;;;2115456;28;20493;-94
2022/06/15 17:38:46;;;;;;;1.15;0.50;;;24.50;44.40;;;;;;2106970;28;20044;-94
2022/06/15 17:40:41;;;;;;;0.85;0.50;;;24.50;44.50;;;;;;2103188;28;20036;-95
2022/06/15 17:42:07;;;;;;;1.40;0.50;;;24.50;44.60;;;;;;2113792;28;20043;-95
2022/06/15 17:43:27;;;;;;;1.35;0.50;;;24.50;44.60;;;;;;2100417;28;20041;-93
2022/06/15 17:44:46;;;;;;;1.00;0.60;;;24.50;44.60;;;;;;2089813;28;20132;-94
2022/06/15 17:46:06;;;;;;;1.08;0.55;;;24.50;44.50;;;;;;2088959;28;20045;-94
2022/06/15 17:47:25;;;;;;;1.63;0.60;;;24.40;44.50;;;;;;2099077;28;20032;-93
2022/06/15 17:48:44;;;;;;;1.73;0.50;;;24.40;44.50;;;;;;2093480;28;20033;-94
2022/06/15 17:50:05;;;;;;;1.80;0.70;;;24.40;44.60;;;;;;2092378;28;20049;-95
2022/06/15 17:51:25;;;;;;;0.90;0.50;;;24.40;44.80;;;;;;2099438;28;20024;-95
2022/06/15 17:52:44;;;;;;;0.82;0.40;;;24.40;44.80;;;;;;2089446;28;20053;-94
2022/06/15 17:54:06;;;;;;;1.23;0.60;;;24.40;44.80;;;;;;2088088;28;20044;-94
2022/06/15 17:55:25;;;;;;;0.50;0.50;;;24.40;44.90;;;;;;2097467;28;20028;-95
2022/06/15 17:56:45;;;;;;;0.85;0.50;;;24.40;44.90;;;;;;2084584;28;20879;-95
2022/06/15 17:58:05;;;;;;;1.80;0.50;;;24.30;44.90;;;;;;2101931;28;20044;-94
2022/06/15 17:59:25;;;;;;;4.47;0.75;;;24.30;45.00;;;;;;2102823;28;20506;-94
2022/06/15 18:00:45;;;;;;;1.40;0.60;;;24.30;45.00;;;;;;2085588;28;20041;-95
2022/06/15 18:02:05;;;;;;;1.50;0.60;;;24.20;45.10;;;;;;2093654;28;20048;-94
2022/06/15 18:03:24;;;;;;;1.10;0.50;;;24.20;45.10;;;;;;2088753;28;20041;-94
2022/06/15 18:04:44;;;;;;;3.90;0.75;;;24.20;45.20;;;;;;2088918;28;20052;-94
2022/06/15 18:06:07;;;;;;;0.98;0.50;;;24.20;45.20;;;;;;2104301;28;20056;-94
2022/06/15 18:07:26;;;;;;;0.68;0.50;;;24.20;45.30;;;;;;2098614;28;20446;-94
2022/06/15 18:08:45;;;;;;;1.30;0.57;;;24.20;45.30;;;;;;2097771;28;20060;-93
2022/06/15 18:10:06;;;;;;;2.90;0.57;;;24.20;45.30;;;;;;2090447;28;20044;-94
2022/06/15 18:11:25;;;;;;;;;;;24.20;45.30;;;;;;2101119;28;20134;-94
2022/06/15 18:12:45;;;;;;;1.23;0.50;;;24.20;45.40;;;;;;2099432;28;19908;-93
2022/06/15 18:14:05;;;;;;;0.77;0.50;;;24.20;45.40;;;;;;2095696;28;20040;-94
2022/06/15 18:15:27;;;;;;;2.45;0.60;;;24.10;45.30;;;;;;2102690;28;20044;-94
2022/06/15 18:16:51;;;;;;;2.25;0.50;;;24.10;45.40;;;;;;2103403;28;20039;-94
2022/06/15 18:18:10;;;;;;;2.47;0.65;;;24.10;45.40;;;;;;2102788;28;20120;-95
2022/06/15 18:19:38;;;;;;;1.70;0.52;;;24.10;45.40;;;;;;2092403;28;20123;-94
2022/06/15 18:20:57;;;;;;;0.90;0.50;;;24.10;45.50;;;;;;2104696;28;20075;-95
2022/06/15 18:22:18;;;;;;;1.33;0.50;;;24.20;45.60;;;;;;2106728;28;20509;-95
2022/06/15 18:23:38;;;;;;;2.30;0.60;;;24.10;45.50;;;;;;2095940;28;20036;-95
2022/06/15 18:25:00;;;;;;;1.40;0.60;;;24.10;45.50;;;;;;2103792;28;20048;-95
2022/06/15 18:26:20;;;;;;;0.82;0.50;;;24.10;45.60;;;;;;2098922;28;20279;-94
2022/06/15 18:27:41;;;;;;;0.65;0.50;;;24.10;45.60;;;;;;2093615;28;20096;-95
2022/06/15 18:29:00;;;;;;;1.75;0.57;;;24.10;45.70;;;;;;2096388;28;20502;-94
2022/06/15 18:30:20;;;;;;;1.05;0.50;;;24.10;45.70;;;;;;2093737;28;20032;-93
2022/06/15 18:31:52;;;;;;;0.60;0.43;;;24.10;45.80;;;;;;2094697;28;20104;-95
2022/06/15 18:33:11;;;;;;;1.63;0.50;;;24.10;46.00;;;;;;2104733;28;20101;-94
2022/06/15 18:34:32;;;;;;;1.38;0.55;;;24.10;46.10;;;;;;2091825;28;20037;-95
2022/06/15 18:35:53;;;;;;;0.90;0.50;;;24.00;46.10;;;;;;2099701;28;20040;-95
2022/06/15 18:37:13;;;;;;;;;;;23.90;46.20;;;;;;2093207;28;20053;-95
2022/06/15 18:38:33;;;;;;;0.88;0.40;;;23.90;46.40;;;;;;2107575;28;19912;-94
2022/06/15 18:39:57;;;;;;;1.25;0.52;;;23.80;46.50;;;;;;2099397;28;20041;-93
2022/06/15 18:41:17;;;;;;;1.20;0.50;;;23.80;46.60;;;;;;2109341;28;20035;-95
2022/06/15 18:42:44;;;;;;;1.40;0.40;;;23.70;46.70;;;;;;2103332;28;20517;-94
2022/06/15 18:47:41;;;;;;;1.15;0.52;;;23.60;47.10;;;;;;2114806;28;20043;-94
2022/06/15 18:49:00;;;;;;;2.17;0.60;;;23.50;47.20;;;;;;2104403;28;20052;-95
2022/06/15 18:50:23;;;;;;;1.35;0.70;;;23.40;47.30;;;;;;2101035;28;20036;-94
2022/06/15 18:51:43;;;;;;;1.33;0.57;;;23.40;47.70;;;;;;2105967;28;20033;-95
2022/06/15 18:53:05;;;;;;;0.82;0.40;;;23.40;47.50;;;;;;2102716;28;20048;-95
2022/06/15 18:54:24;;;;;;;2.65;0.60;;;23.40;47.70;;;;;;2109352;28;20040;-94
2022/06/15 18:55:44;;;;;;;3.08;0.60;;;23.30;47.70;;;;;;2095737;28;20041;-94
2022/06/15 18:57:05;;;;;;;1.55;0.60;;;23.30;47.80;;;;;;2095320;28;20398;-94
2022/06/15 18:58:27;;;;;;;;;;;23.30;47.90;;;;;;2104147;28;20040;-95
2022/06/15 18:59:51;;;;;;;2.28;0.60;;;23.20;47.90;;;;;;2112397;28;19911;-95
2022/06/15 19:01:11;;;;;;;0.90;0.50;;;23.20;48.00;;;;;;2111681;28;20047;-94
2022/06/15 19:02:36;;;;;;;2.05;0.50;;;23.10;48.10;;;;;;2102320;28;20075;-92
2022/06/15 19:03:56;;;;;;;1.77;0.70;;;23.10;48.30;;;;;;2095450;28;20056;-95
2022/06/15 19:05:21;;;;;;;1.25;0.50;;;23.10;48.30;;;;;;2097462;28;20080;-94
2022/06/15 19:06:41;;;;;;;1.35;0.50;;;23.00;48.40;;;;;;2110859;28;20036;-94
2022/06/15 19:08:04;;;;;;;1.00;0.55;;;23.00;48.50;;;;;;2112617;28;20032;-95
2022/06/15 19:09:24;;;;;;;0.73;0.40;;;23.00;48.60;;;;;;2108638;28;20036;-94
2022/06/15 19:10:45;;;;;;;1.00;0.57;;;22.90;48.70;;;;;;2120449;28;20031;-95
2022/06/15 19:12:04;;;;;;;0.73;0.38;;;22.90;48.80;;;;;;2111193;28;20048;-95
2022/06/15 19:13:24;;;;;;;1.52;0.60;;;22.90;48.80;;;;;;2089298;28;20036;-94
2022/06/15 19:14:43;;;;;;;1.30;0.50;;;22.90;49.00;;;;;;2115016;28;20036;-93
2022/06/15 19:16:03;;;;;;;1.10;0.50;;;22.80;49.00;;;;;;2103518;28;20275;-94
2022/06/15 19:17:23;;;;;;;1.23;0.60;;;22.80;49.10;;;;;;2105245;28;20032;-94
2022/06/15 19:18:42;;;;;;;2.05;0.60;;;22.80;49.20;;;;;;2100289;28;20333;-94
2022/06/15 19:20:04;;;;;;;1.50;0.50;;;22.70;49.30;;;;;;2107018;28;20036;-94
2022/06/15 19:21:26;;;;;;;1.30;0.50;;;22.70;49.50;;;;;;2109655;28;20032;-94
2022/06/15 19:22:45;;;;;;;1.65;0.70;;;22.70;49.60;;;;;;2114974;28;20043;-94
2022/06/15 19:24:06;;;;;;;1.20;0.55;;;22.60;49.60;;;;;;2100375;28;20041;-93
2022/06/15 19:25:25;;;;;;;0.95;0.60;;;22.60;49.80;;;;;;2090290;28;20427;-94
2022/06/15 19:26:46;;;;;;;1.27;0.70;;;22.60;49.90;;;;;;2092192;28;20040;-92
2022/06/15 19:28:06;;;;;;;;;;;22.50;50.00;;;;;;2096400;28;20119;-93
2022/06/15 19:29:25;;;;;;;1.52;0.57;;;22.50;50.10;;;;;;2100439;28;19951;-93
2022/06/15 19:30:44;;;;;;;1.42;0.60;;;22.40;50.10;;;;;;2110210;28;20036;-93
2022/06/15 19:32:05;;;;;;;1.35;0.60;;;22.40;50.20;;;;;;2093258;28;20045;-95
2022/06/15 19:33:24;;;;;;;0.90;0.50;;;22.40;50.40;;;;;;2105447;28;20036;-94
2022/06/15 19:34:44;;;;;;;1.55;0.50;;;22.40;50.50;;;;;;2108524;28;20048;-94
2022/06/15 19:36:04;;;;;;;1.98;0.90;;;22.30;50.60;;;;;;2116428;28;20035;-94
2022/06/15 19:37:24;;;;;;;1.38;0.70;;;22.30;50.70;;;;;;2113958;28;20032;-94
2022/06/15 19:38:43;;;;;;;1.10;0.60;;;22.30;50.80;;;;;;2112975;27;20063;-94
2022/06/15 19:40:04;;;;;;;1.95;0.60;;;22.30;50.90;;;;;;2096614;28;20063;-93
2022/06/15 19:41:24;;;;;;;1.75;0.60;;;22.20;51.00;;;;;;2108338;28;20040;-94
2022/06/15 19:42:44;;;;;;;0.82;0.40;;;22.20;51.10;;;;;;2097031;28;20040;-94
2022/06/15 19:44:03;;;;;;;1.40;0.43;;;22.20;51.80;;;;;;2115654;27;20039;-94
2022/06/15 19:45:23;;;;;;;1.02;0.60;;;22.10;51.30;;;;;;2109631;28;20048;-95
2022/06/15 19:46:42;;;;;;;1.95;0.50;;;22.10;51.40;;;;;;2093052;28;20048;-94
2022/06/15 19:48:02;;;;;;;2.30;0.68;;;22.10;51.50;;;;;;2106091;28;20071;-94
2022/06/15 19:49:22;;;;;;;;;;;22.10;51.60;;;;;;2111228;28;20048;-93
2022/06/15 19:50:45;;;;;;;1.08;0.52;;;22.00;51.70;;;;;;2099955;28;19916;-94
2022/06/15 19:52:08;;;;;;;1.27;0.60;;;22.00;52.10;;;;;;2116389;27;20032;-94
2022/06/15 19:53:27;;;;;;;2.22;0.60;;;21.90;51.80;;;;;;2124998;27;20031;-96
2022/06/15 19:54:47;;;;;;;2.28;0.50;;;21.90;52.00;;;;;;2115209;28;20040;-94
2022/06/15 19:56:06;;;;;;;1.77;0.60;;;21.80;52.10;;;;;;2108732;27;20035;-96
2022/06/15 19:57:26;;;;;;;1.52;0.63;;;21.80;52.20;;;;;;2096124;28;20041;-93
2022/06/15 19:58:46;;;;;;;2.00;0.60;;;21.80;52.40;;;;;;2096905;28;20063;-94
2022/06/15 20:00:11;;;;;;;0.65;0.40;;;21.80;52.50;;;;;;2098284;28;20127;-94
2022/06/15 20:01:30;;;;;;;1.50;0.57;;;21.70;52.60;;;;;;2118359;27;20035;-94
2022/06/15 20:02:51;;;;;;;1.42;0.60;;;21.70;52.80;;;;;;2111962;28;20028;-94